createdAt,value
2023-02-02T00:01:17.867Z,4.47
2023-02-02T00:03:46.824Z,4.80
2023-02-02T00:06:15.279Z,5.33
2023-02-02T00:08:43.500Z,4.70
2023-02-02T00:11:11.914Z,4.53
2023-02-02T00:13:40.097Z,4.80
2023-02-02T00:16:41.441Z,5.00
2023-02-02T00:19:11.313Z,4.67
2023-02-02T00:21:39.940Z,3.83
2023-02-02T00:24:09.686Z,4.30
2023-02-02T00:26:38.825Z,4.90
2023-02-02T00:29:08.464Z,4.50
2023-02-02T00:31:38.204Z,4.60
2023-02-02T00:34:06.479Z,5.00
2023-02-02T00:36:34.943Z,4.80
2023-02-02T00:39:03.357Z,4.97
2023-02-02T00:41:31.547Z,4.43
2023-02-02T00:44:17.406Z,4.97
2023-02-02T00:46:47.172Z,4.33
2023-02-02T00:49:15.604Z,4.20
2023-02-02T00:51:43.926Z,4.90
2023-02-02T00:54:12.249Z,4.50
2023-02-02T00:56:40.716Z,3.83
2023-02-02T00:59:09.186Z,4.27
2023-02-02T01:01:37.536Z,4.43
2023-02-02T01:04:07.647Z,4.20
2023-02-02T01:06:36.384Z,4.50
2023-02-02T01:09:05.448Z,4.10
2023-02-02T01:11:33.846Z,3.97
2023-02-02T01:14:02.537Z,4.20
2023-02-02T01:16:31.104Z,4.00
2023-02-02T01:18:59.496Z,4.50
2023-02-02T01:21:29.263Z,4.40
2023-02-02T01:23:57.510Z,4.33
2023-02-02T01:26:26.051Z,4.80
2023-02-02T01:28:54.509Z,3.67
2023-02-02T01:31:22.785Z,4.57
2023-02-02T01:33:51.893Z,4.80
2023-02-02T01:36:23.233Z,4.23
2023-02-02T01:38:52.946Z,4.60
2023-02-02T01:41:24.080Z,5.00
2023-02-02T01:43:58.677Z,4.40
2023-02-02T01:46:29.137Z,3.97
2023-02-02T01:49:03.445Z,4.00
2023-02-02T01:51:41.194Z,4.20
2023-02-02T01:54:17.410Z,4.27
2023-02-02T01:56:50.727Z,4.57
2023-02-02T01:59:20.016Z,4.27
2023-02-02T02:01:50.042Z,4.20
2023-02-02T02:04:18.561Z,4.00
2023-02-02T02:06:48.374Z,4.57
2023-02-02T02:09:18.553Z,4.10
2023-02-02T02:11:47.233Z,4.50
2023-02-02T02:14:35.153Z,4.73
2023-02-02T02:17:20.981Z,5.17
2023-02-02T02:20:39.459Z,4.40
2023-02-02T02:23:56.343Z,4.30
2023-02-02T02:26:57.394Z,4.80
2023-02-02T02:30:02.828Z,4.23
2023-02-02T02:32:42.299Z,4.47
2023-02-02T02:35:19.305Z,4.07
2023-02-02T02:37:51.517Z,3.80
2023-02-02T02:40:27.615Z,3.90
2023-02-02T02:42:58.917Z,4.00
2023-02-02T02:45:29.303Z,4.37
2023-02-02T02:47:59.185Z,3.97
2023-02-02T02:50:27.369Z,4.80
2023-02-02T02:53:03.476Z,4.10
2023-02-02T02:55:43.049Z,4.10
2023-02-02T02:58:17.251Z,4.00
2023-02-02T03:00:57.604Z,3.80
2023-02-02T03:03:37.340Z,3.93
2023-02-02T03:06:13.123Z,4.07
2023-02-02T03:08:45.206Z,3.70
2023-02-02T03:11:18.542Z,4.20
2023-02-02T03:13:47.013Z,3.80
2023-02-02T03:16:17.537Z,3.73
2023-02-02T03:18:47.796Z,4.07
2023-02-02T03:21:15.993Z,4.03
2023-02-02T03:23:44.207Z,5.00
2023-02-02T03:26:12.761Z,4.30
2023-02-02T03:28:41.622Z,3.70
2023-02-02T03:31:10.003Z,3.50
2023-02-02T03:33:39.117Z,3.53
2023-02-02T03:36:09.464Z,4.40
2023-02-02T03:38:37.682Z,4.53
2023-02-02T03:41:07.113Z,3.87
2023-02-02T03:43:35.334Z,4.27
2023-02-02T03:46:05.395Z,3.60
2023-02-02T03:48:37.006Z,4.23
2023-02-02T03:51:09.338Z,4.03
2023-02-02T03:53:38.464Z,3.87
2023-02-02T03:56:07.418Z,4.30
2023-02-02T03:58:35.639Z,3.50
2023-02-02T04:01:05.243Z,3.53
2023-02-02T04:03:33.694Z,4.10
2023-02-02T04:06:02.344Z,4.00
2023-02-02T04:08:32.376Z,3.87
2023-02-02T04:11:00.730Z,3.50
2023-02-02T04:13:29.248Z,3.73
2023-02-02T04:16:38.218Z,3.80
2023-02-02T04:19:46.399Z,3.83
2023-02-02T04:22:55.931Z,4.30
2023-02-02T04:26:06.192Z,3.60
2023-02-02T04:29:18.054Z,3.73
2023-02-02T04:32:26.317Z,3.40
2023-02-02T04:35:34.856Z,3.63
2023-02-02T04:38:43.049Z,3.57
2023-02-02T04:41:52.823Z,3.33
2023-02-02T04:45:00.990Z,3.50
2023-02-02T04:48:09.939Z,3.40
2023-02-02T04:51:18.775Z,3.00
2023-02-02T04:54:27.005Z,3.07
2023-02-02T04:57:36.582Z,3.30
2023-02-02T05:00:45.012Z,3.57
2023-02-02T05:03:53.511Z,3.27
2023-02-02T05:07:02.128Z,3.33
2023-02-02T05:10:11.585Z,3.37
2023-02-02T05:13:21.769Z,3.80
2023-02-02T05:15:50.318Z,3.67
2023-02-02T05:18:20.286Z,3.93
2023-02-02T05:20:48.822Z,3.43
2023-02-02T05:23:17.086Z,3.40
2023-02-02T05:25:45.351Z,3.73
2023-02-02T05:28:13.843Z,5.00
2023-02-02T05:30:43.506Z,4.10
2023-02-02T05:33:12.019Z,4.63
2023-02-02T05:35:40.774Z,4.87
2023-02-02T05:38:09.331Z,4.00
2023-02-02T05:40:37.515Z,3.47
2023-02-02T05:43:06.015Z,4.00
2023-02-02T05:45:34.249Z,4.07
2023-02-02T05:48:03.909Z,3.67
2023-02-02T05:50:32.643Z,3.50
2023-02-02T05:53:01.338Z,4.50
2023-02-02T05:55:29.603Z,4.40
2023-02-02T05:57:58.115Z,5.80
2023-02-02T06:00:26.404Z,5.70
2023-02-02T06:02:54.611Z,5.23
2023-02-02T06:05:25.298Z,4.13
2023-02-02T06:07:53.685Z,5.27
2023-02-02T06:10:21.862Z,4.27
2023-02-02T06:12:50.136Z,4.47
2023-02-02T06:15:18.511Z,3.77
2023-02-02T06:17:46.692Z,3.90
2023-02-02T06:20:16.792Z,3.70
2023-02-02T06:22:46.430Z,4.13
2023-02-02T06:25:14.719Z,4.07
2023-02-02T06:27:45.396Z,4.03
2023-02-02T06:30:14.811Z,3.80
2023-02-02T06:32:43.152Z,3.33
2023-02-02T06:35:11.672Z,3.43
2023-02-02T06:37:40.715Z,3.17
2023-02-02T06:40:11.911Z,3.40
2023-02-02T06:42:40.741Z,4.23
2023-02-02T06:45:09.971Z,3.40
2023-02-02T06:47:38.225Z,3.50
2023-02-02T06:50:06.824Z,4.20
2023-02-02T06:52:35.002Z,3.40
2023-02-02T06:55:03.318Z,3.60
2023-02-02T06:57:33.240Z,4.13
2023-02-02T07:00:01.655Z,3.20
2023-02-02T07:02:29.953Z,3.20
2023-02-02T07:04:58.351Z,3.47
2023-02-02T07:07:26.561Z,3.57
2023-02-02T07:09:58.279Z,3.90
2023-02-02T07:12:28.131Z,3.30
2023-02-02T07:14:59.462Z,5.13
2023-02-02T07:17:27.917Z,3.53
2023-02-02T07:19:56.236Z,3.80
2023-02-02T07:22:24.659Z,3.87
2023-02-02T07:24:53.010Z,3.10
2023-02-02T07:27:21.447Z,3.30
2023-02-02T07:29:49.659Z,4.40
2023-02-02T07:32:19.606Z,3.30
2023-02-02T07:34:48.131Z,3.43
2023-02-02T07:37:16.446Z,3.53
2023-02-02T07:39:44.673Z,3.77
2023-02-02T07:42:13.934Z,3.20
2023-02-02T07:44:42.248Z,3.33
2023-02-02T07:47:10.509Z,3.40
2023-02-02T07:49:40.251Z,3.50
2023-02-02T07:52:08.740Z,3.50
2023-02-02T07:54:37.083Z,3.87
2023-02-02T07:57:05.528Z,3.37
2023-02-02T07:59:33.847Z,3.40
2023-02-02T08:02:02.099Z,3.60
2023-02-02T08:04:30.891Z,3.33
2023-02-02T08:07:00.446Z,3.97
2023-02-02T08:09:28.640Z,3.97
2023-02-02T08:12:01.924Z,3.00
2023-02-02T08:14:30.399Z,3.30
2023-02-02T08:16:58.854Z,3.67
2023-02-02T08:19:27.157Z,3.40
2023-02-02T08:21:55.577Z,3.07
2023-02-02T08:24:25.383Z,3.30
2023-02-02T08:26:53.761Z,3.07
2023-02-02T08:29:21.979Z,3.30
2023-02-02T08:31:50.495Z,3.50
2023-02-02T08:34:18.870Z,3.27
2023-02-02T08:36:47.071Z,3.23
2023-02-02T08:39:15.529Z,3.53
2023-02-02T08:41:45.702Z,2.50
2023-02-02T08:44:16.238Z,2.80
2023-02-02T08:46:44.946Z,2.97
2023-02-02T08:49:14.217Z,3.13
2023-02-02T08:51:43.071Z,3.00
2023-02-02T08:54:11.461Z,3.43
2023-02-02T08:56:39.948Z,3.17
2023-02-02T08:59:09.670Z,2.97
2023-02-02T09:01:38.268Z,2.90
2023-02-02T09:04:08.400Z,3.00
2023-02-02T09:06:38.291Z,3.13
2023-02-02T09:09:08.745Z,4.00
2023-02-02T09:11:37.640Z,2.40
2023-02-02T09:14:07.047Z,3.10
2023-02-02T09:16:37.751Z,2.77
2023-02-02T09:19:06.795Z,3.20
2023-02-02T09:21:37.223Z,2.97
2023-02-02T09:24:09.215Z,3.20
2023-02-02T09:26:38.758Z,2.63
2023-02-02T09:29:09.012Z,2.63
2023-02-02T09:31:39.383Z,3.03
2023-02-02T09:34:09.652Z,3.80
2023-02-02T09:36:38.944Z,3.10
2023-02-02T09:39:08.444Z,3.27
2023-02-02T09:42:06.159Z,3.10
2023-02-02T09:44:57.384Z,3.00
2023-02-02T09:47:38.015Z,3.17
2023-02-02T09:50:12.969Z,3.00
2023-02-02T09:52:45.096Z,3.30
2023-02-02T09:55:19.501Z,3.53
2023-02-02T09:57:52.582Z,3.10
2023-02-02T10:00:29.216Z,3.87
2023-02-02T10:03:05.092Z,2.70
2023-02-02T10:05:45.444Z,2.73
2023-02-02T10:08:33.662Z,2.83
2023-02-02T10:11:10.841Z,2.90
2023-02-02T10:13:43.633Z,2.73
2023-02-02T10:16:18.770Z,3.47
2023-02-02T10:18:53.310Z,3.60
2023-02-02T10:21:30.610Z,3.10
2023-02-02T10:24:01.950Z,3.07
2023-02-02T10:26:38.249Z,2.80
2023-02-02T10:29:16.837Z,2.77
2023-02-02T10:31:51.370Z,2.83
2023-02-02T10:34:26.957Z,2.60
2023-02-02T10:37:08.166Z,2.93
2023-02-02T10:39:47.596Z,2.50
2023-02-02T10:42:25.742Z,2.80
2023-02-02T10:44:58.869Z,2.83
2023-02-02T10:47:30.804Z,3.10
2023-02-02T10:50:17.672Z,3.20
2023-02-02T10:52:49.946Z,2.70
2023-02-02T10:55:29.752Z,2.80
2023-02-02T10:58:07.698Z,2.67
2023-02-02T11:00:42.057Z,3.20
2023-02-02T11:03:13.251Z,2.40
2023-02-02T11:06:00.984Z,2.60
2023-02-02T11:08:34.089Z,2.60
2023-02-02T11:11:12.590Z,2.63
2023-02-02T11:13:45.296Z,2.67
2023-02-02T11:16:32.681Z,2.37
2023-02-02T11:19:24.125Z,3.10
2023-02-02T11:21:56.420Z,2.30
2023-02-02T11:24:28.313Z,2.90
2023-02-02T11:26:59.112Z,3.00
2023-02-02T11:29:30.964Z,2.77
2023-02-02T11:31:59.819Z,2.20
2023-02-02T11:34:29.535Z,2.60
2023-02-02T11:37:13.859Z,2.77
2023-02-02T11:39:45.583Z,2.67
2023-02-02T11:42:17.372Z,2.80
2023-02-02T11:44:49.297Z,3.40
2023-02-02T11:47:22.502Z,3.10
2023-02-02T11:49:53.015Z,2.53
2023-02-02T11:52:26.700Z,3.77
2023-02-02T11:54:58.592Z,2.87
2023-02-02T11:57:28.506Z,3.23
2023-02-02T12:00:17.644Z,2.20
2023-02-02T12:02:48.353Z,2.80
2023-02-02T12:05:35.293Z,3.87
2023-02-02T12:08:05.900Z,2.80
2023-02-02T12:10:40.468Z,3.13
2023-02-02T12:13:14.884Z,3.17
2023-02-02T12:15:52.840Z,2.77
2023-02-02T12:18:38.185Z,3.00
2023-02-02T12:21:08.233Z,3.20
2023-02-02T12:23:52.286Z,2.60
2023-02-02T12:26:26.920Z,2.53
2023-02-02T12:29:07.823Z,2.77
2023-02-02T12:31:46.328Z,2.73
2023-02-02T12:34:22.440Z,2.80
2023-02-02T12:37:00.417Z,2.73
2023-02-02T12:39:37.934Z,2.33
2023-02-02T12:42:26.154Z,3.17
2023-02-02T12:45:14.665Z,3.40
2023-02-02T12:47:53.251Z,3.20
2023-02-02T12:50:30.088Z,2.87
2023-02-02T12:53:17.869Z,3.30
2023-02-02T12:55:53.819Z,2.90
2023-02-02T12:58:34.668Z,2.70
2023-02-02T13:01:28.775Z,2.90
2023-02-02T13:04:25.762Z,2.87
2023-02-02T13:07:26.621Z,2.53
2023-02-02T13:10:18.658Z,3.00
2023-02-02T13:12:53.505Z,2.83
2023-02-02T13:15:24.371Z,2.90
2023-02-02T13:17:56.240Z,3.00
2023-02-02T13:20:32.752Z,3.00
2023-02-02T13:23:08.967Z,3.10
2023-02-02T13:25:46.170Z,3.23
2023-02-02T13:28:29.030Z,2.50
2023-02-02T13:31:01.580Z,3.80
2023-02-02T13:33:34.631Z,3.20
2023-02-02T13:36:07.049Z,3.17
2023-02-02T13:38:39.583Z,3.00
2023-02-02T13:41:12.525Z,2.80
2023-02-02T13:43:50.232Z,4.33
2023-02-02T13:46:27.122Z,4.33
2023-02-02T13:49:02.432Z,3.70
2023-02-02T13:52:08.899Z,4.70
2023-02-02T13:55:09.821Z,2.93
2023-02-02T13:57:53.866Z,2.70
2023-02-02T14:00:27.352Z,3.40
2023-02-02T14:02:57.749Z,3.63
2023-02-02T14:05:29.242Z,3.93
2023-02-02T14:08:03.231Z,3.30
2023-02-02T14:10:35.242Z,3.13
2023-02-02T14:13:35.915Z,3.77
2023-02-02T14:16:08.623Z,3.00
2023-02-02T14:19:04.941Z,6.13
2023-02-02T14:22:01.120Z,3.17
2023-02-02T14:24:51.412Z,3.23
2023-02-02T14:27:58.312Z,3.40
2023-02-02T14:30:33.936Z,2.87
2023-02-02T14:33:47.969Z,2.73
2023-02-02T14:36:18.021Z,2.97
2023-02-02T14:39:01.425Z,3.00
2023-02-02T14:42:23.371Z,4.00
2023-02-02T14:45:24.165Z,3.70
2023-02-02T14:47:54.738Z,3.60
2023-02-02T14:50:36.345Z,3.13
2023-02-02T14:53:08.363Z,3.10
2023-02-02T14:55:54.091Z,3.50
2023-02-02T14:58:27.132Z,3.23
2023-02-02T15:01:04.402Z,4.27
2023-02-02T15:03:50.279Z,4.27
2023-02-02T15:06:34.522Z,3.70
2023-02-02T15:09:37.699Z,4.30
2023-02-02T15:12:21.364Z,3.77
2023-02-02T15:14:54.353Z,4.27
2023-02-02T15:17:27.757Z,3.43
2023-02-02T15:20:03.584Z,2.90
2023-02-02T15:22:38.842Z,2.70
2023-02-02T15:25:18.325Z,2.77
2023-02-02T15:27:56.774Z,2.77
2023-02-02T15:30:27.845Z,2.70
2023-02-02T15:32:57.746Z,3.07
2023-02-02T15:35:31.921Z,3.20
2023-02-02T15:38:06.052Z,2.67
2023-02-02T15:40:38.323Z,2.60
2023-02-02T15:43:09.389Z,3.23
2023-02-02T15:45:44.036Z,3.37
2023-02-02T15:48:30.933Z,3.73
2023-02-02T15:51:02.007Z,3.00
2023-02-02T15:53:51.922Z,2.90
2023-02-02T15:56:29.612Z,3.13
2023-02-02T15:59:00.029Z,3.30
2023-02-02T16:01:33.669Z,3.30
2023-02-02T16:04:15.753Z,3.60
2023-02-02T16:06:44.965Z,3.33
2023-02-02T16:09:25.760Z,3.43
2023-02-02T16:11:54.610Z,3.67
2023-02-02T16:14:23.837Z,4.17
2023-02-02T16:16:52.408Z,4.37
2023-02-02T16:19:23.750Z,4.27
2023-02-02T16:21:57.254Z,4.20
2023-02-02T16:24:29.747Z,4.57
2023-02-02T16:27:00.855Z,3.37
2023-02-02T16:29:30.497Z,4.13
2023-02-02T16:31:59.158Z,3.83
2023-02-02T16:34:47.478Z,4.03
2023-02-02T16:37:17.176Z,3.90
2023-02-02T16:39:46.915Z,3.83
2023-02-02T16:42:26.394Z,4.13
2023-02-02T16:44:55.596Z,4.60
2023-02-02T16:47:39.522Z,4.10
2023-02-02T16:50:29.906Z,4.50
2023-02-02T16:53:03.323Z,5.03
2023-02-02T16:55:49.394Z,4.43
2023-02-02T16:58:22.878Z,4.57
2023-02-02T17:01:13.596Z,4.43
2023-02-02T17:03:49.599Z,4.73
2023-02-02T17:06:18.292Z,4.90
2023-02-02T17:08:46.555Z,5.37
2023-02-02T17:11:25.419Z,5.03
2023-02-02T17:13:54.422Z,5.10
2023-02-02T17:16:24.835Z,5.80
2023-02-02T17:18:53.517Z,5.80
2023-02-02T17:21:24.153Z,5.23
2023-02-02T17:23:54.583Z,5.00
2023-02-02T17:26:24.387Z,4.97
2023-02-02T17:28:57.212Z,5.23
2023-02-02T17:31:25.759Z,5.40
2023-02-02T17:33:54.030Z,5.03
2023-02-02T17:36:22.368Z,4.80
2023-02-02T17:38:50.628Z,5.10
2023-02-02T17:41:18.823Z,4.93
2023-02-02T17:43:48.991Z,5.00
2023-02-02T17:46:17.433Z,4.70
2023-02-02T17:48:45.653Z,5.10
2023-02-02T17:51:17.653Z,4.37
2023-02-02T17:53:46.453Z,4.53
2023-02-02T17:56:14.702Z,4.77
2023-02-02T17:58:43.087Z,4.17
2023-02-02T18:01:13.392Z,4.03
2023-02-02T18:03:44.985Z,4.30
2023-02-02T18:06:13.177Z,4.10
2023-02-02T18:08:41.943Z,4.10
2023-02-02T18:11:13.569Z,4.23
2023-02-02T18:13:44.303Z,4.37
2023-02-02T18:16:14.774Z,4.20
2023-02-02T18:18:43.001Z,4.63
2023-02-02T18:21:12.146Z,4.50
2023-02-02T18:23:40.992Z,6.67
2023-02-02T18:26:14.696Z,5.13
2023-02-02T18:28:43.002Z,4.30
2023-02-02T18:31:14.686Z,4.37
2023-02-02T18:33:43.450Z,4.17
2023-02-02T18:36:13.779Z,4.30
2023-02-02T18:38:43.977Z,4.40
2023-02-02T18:41:12.445Z,4.40
2023-02-02T18:43:40.662Z,4.37
2023-02-02T18:46:14.193Z,4.60
2023-02-02T18:48:44.389Z,4.60
2023-02-02T18:51:15.909Z,4.80
2023-02-02T18:53:44.526Z,4.37
2023-02-02T18:56:14.287Z,3.93
2023-02-02T18:58:42.914Z,3.87
2023-02-02T19:01:12.847Z,4.03
2023-02-02T19:03:41.401Z,4.23
2023-02-02T19:06:29.290Z,4.17
2023-02-02T19:08:57.585Z,3.77
2023-02-02T19:11:39.244Z,4.20
2023-02-02T19:14:15.012Z,4.33
2023-02-02T19:16:44.475Z,4.43
2023-02-02T19:19:24.010Z,4.07
2023-02-02T19:21:56.892Z,4.57
2023-02-02T19:24:27.121Z,4.10
2023-02-02T19:26:55.517Z,4.40
2023-02-02T19:29:25.819Z,4.20
2023-02-02T19:31:57.453Z,4.13
2023-02-02T19:34:25.929Z,4.10
2023-02-02T19:36:55.687Z,3.80
2023-02-02T19:39:30.875Z,3.87
2023-02-02T19:42:01.193Z,3.80
2023-02-02T19:44:34.112Z,3.70
2023-02-02T19:47:20.453Z,3.97
2023-02-02T19:49:48.802Z,3.83
2023-02-02T19:52:24.162Z,3.70
2023-02-02T19:54:52.995Z,3.17
2023-02-02T19:57:25.446Z,3.63
2023-02-02T19:59:54.863Z,3.37
2023-02-02T20:02:53.465Z,3.47
2023-02-02T20:05:23.424Z,3.20
2023-02-02T20:07:59.290Z,4.30
2023-02-02T20:10:30.395Z,3.90
2023-02-02T20:12:58.683Z,3.83
2023-02-02T20:15:33.037Z,3.60
2023-02-02T20:18:03.425Z,3.27
2023-02-02T20:20:39.503Z,3.63
2023-02-02T20:23:21.294Z,3.80
2023-02-02T20:25:49.749Z,3.13
2023-02-02T20:28:33.366Z,3.73
2023-02-02T20:31:04.153Z,4.13
2023-02-02T20:33:33.393Z,3.50
2023-02-02T20:36:03.097Z,3.43
2023-02-02T20:38:39.900Z,4.13
2023-02-02T20:41:08.121Z,3.17
2023-02-02T20:43:36.580Z,3.57
2023-02-02T20:46:05.255Z,3.50
2023-02-02T20:48:33.527Z,4.13
2023-02-02T20:51:01.731Z,3.60
2023-02-02T20:53:30.266Z,3.70
2023-02-02T20:56:02.150Z,3.80
2023-02-02T20:58:30.341Z,3.73
2023-02-02T21:00:58.722Z,3.60
2023-02-02T21:03:27.005Z,3.97
2023-02-02T21:05:55.430Z,3.77
2023-02-02T21:08:23.806Z,4.17
2023-02-02T21:10:52.037Z,4.10
2023-02-02T21:13:21.664Z,4.07
2023-02-02T21:15:49.933Z,4.00
2023-02-02T21:18:18.071Z,4.60
2023-02-02T21:20:46.330Z,4.17
2023-02-02T21:23:15.005Z,4.40
2023-02-02T21:25:43.254Z,4.37
2023-02-02T21:28:11.556Z,3.90
2023-02-02T21:30:41.498Z,5.20
2023-02-02T21:33:09.815Z,4.53
2023-02-02T21:35:38.163Z,4.70
2023-02-02T21:38:14.138Z,5.10
2023-02-02T21:40:42.959Z,5.00
2023-02-02T21:43:17.197Z,5.20
2023-02-02T21:45:51.188Z,5.20
2023-02-02T21:48:30.429Z,4.70
2023-02-02T21:50:58.921Z,4.87
2023-02-02T21:53:28.528Z,4.40
2023-02-02T21:55:59.889Z,5.23
2023-02-02T21:58:34.771Z,4.80
2023-02-02T22:01:21.479Z,4.83
2023-02-02T22:03:51.013Z,4.77
2023-02-02T22:06:28.847Z,4.93
2023-02-02T22:09:03.221Z,4.83
2023-02-02T22:11:40.072Z,4.83
2023-02-02T22:14:18.142Z,4.20
2023-02-02T22:16:50.351Z,4.20
2023-02-02T22:19:27.257Z,5.10
2023-02-02T22:22:00.465Z,4.30
2023-02-02T22:24:28.823Z,3.83
2023-02-02T22:26:59.407Z,4.13
2023-02-02T22:29:30.239Z,4.43
2023-02-02T22:32:00.268Z,4.20
2023-02-02T22:34:28.593Z,4.70
2023-02-02T22:36:57.593Z,4.63
2023-02-02T22:39:25.843Z,4.50
2023-02-02T22:41:54.126Z,3.97
2023-02-02T22:44:22.600Z,5.40
2023-02-02T22:46:50.872Z,4.37
2023-02-02T22:49:20.669Z,3.97
2023-02-02T22:51:48.921Z,4.33
2023-02-02T22:54:17.395Z,4.37
2023-02-02T22:56:45.581Z,4.57
2023-02-02T22:59:13.835Z,4.60
2023-02-02T23:01:42.241Z,4.77
2023-02-02T23:04:10.483Z,4.20
2023-02-02T23:06:40.051Z,4.40
2023-02-02T23:09:08.465Z,4.53
2023-02-02T23:11:37.000Z,5.07
2023-02-02T23:14:05.294Z,5.17
2023-02-02T23:16:33.788Z,4.70
2023-02-02T23:19:02.095Z,5.53
2023-02-02T23:21:30.384Z,4.80
2023-02-02T23:24:00.118Z,5.60
2023-02-02T23:26:28.272Z,5.87
2023-02-02T23:28:56.401Z,5.77
2023-02-02T23:31:24.912Z,5.87
2023-02-02T23:33:53.244Z,5.50
2023-02-02T23:36:21.571Z,5.63
2023-02-02T23:38:49.847Z,6.20
2023-02-02T23:41:20.437Z,5.50
2023-02-02T23:43:50.402Z,5.20
2023-02-02T23:46:18.890Z,5.20
2023-02-02T23:48:47.424Z,5.57
2023-02-02T23:51:16.183Z,5.57
2023-02-02T23:53:45.010Z,4.93
2023-02-02T23:56:13.499Z,4.63
2023-02-02T23:58:43.409Z,4.67
